sensor_id;sensor_type;location;lat;lon;timestamp;P1;durP1;ratioP1;P2;durP2;ratioP2
14611;SDS011;7392;52.078;11.650;2022-12-20T00:01:34;11.83;;;9.60;;
14611;SDS011;7392;52.078;11.650;2022-12-20T00:04:02;14.20;;;10.70;;
14611;SDS011;7392;52.078;11.650;2022-12-20T00:06:32;13.10;;;9.97;;
14611;SDS011;7392;52.078;11.650;2022-12-20T00:09:01;14.13;;;10.67;;
14611;SDS011;7392;52.078;11.650;2022-12-20T00:14:09;16.03;;;10.90;;
14611;SDS011;7392;52.078;11.650;2022-12-20T00:16:38;13.60;;;10.00;;
14611;SDS011;7392;52.078;11.650;2022-12-20T00:19:06;13.77;;;10.80;;
14611;SDS011;7392;52.078;11.650;2022-12-20T00:21:36;13.90;;;10.80;;
14611;SDS011;7392;52.078;11.650;2022-12-20T00:24:05;15.97;;;11.77;;
14611;SDS011;7392;52.078;11.650;2022-12-20T00:26:33;16.63;;;11.20;;
14611;SDS011;7392;52.078;11.650;2022-12-20T00:29:03;13.97;;;11.10;;
14611;SDS011;7392;52.078;11.650;2022-12-20T00:31:32;16.30;;;11.83;;
14611;SDS011;7392;52.078;11.650;2022-12-20T00:34:02;14.23;;;10.83;;
14611;SDS011;7392;52.078;11.650;2022-12-20T00:36:30;14.47;;;10.10;;
14611;SDS011;7392;52.078;11.650;2022-12-20T00:38:59;14.40;;;10.60;;
14611;SDS011;7392;52.078;11.650;2022-12-20T00:41:28;13.37;;;10.43;;
14611;SDS011;7392;52.078;11.650;2022-12-20T00:43:57;13.80;;;9.90;;
14611;SDS011;7392;52.078;11.650;2022-12-20T00:46:25;13.57;;;10.40;;
14611;SDS011;7392;52.078;11.650;2022-12-20T00:48:54;15.57;;;11.17;;
14611;SDS011;7392;52.078;11.650;2022-12-20T00:51:24;14.57;;;11.07;;
14611;SDS011;7392;52.078;11.650;2022-12-20T00:53:53;16.20;;;11.60;;
14611;SDS011;7392;52.078;11.650;2022-12-20T00:56:21;15.03;;;10.70;;
14611;SDS011;7392;52.078;11.650;2022-12-20T00:58:53;14.70;;;10.67;;
14611;SDS011;7392;52.078;11.650;2022-12-20T01:01:23;15.40;;;11.70;;
14611;SDS011;7392;52.078;11.650;2022-12-20T01:03:52;16.27;;;11.97;;
14611;SDS011;7392;52.078;11.650;2022-12-20T01:06:21;17.03;;;12.03;;
14611;SDS011;7392;52.078;11.650;2022-12-20T01:08:51;14.80;;;10.87;;
14611;SDS011;7392;52.078;11.650;2022-12-20T01:11:21;15.83;;;12.20;;
14611;SDS011;7392;52.078;11.650;2022-12-20T01:13:51;15.23;;;11.40;;
14611;SDS011;7392;52.078;11.650;2022-12-20T01:16:22;18.50;;;10.87;;
14611;SDS011;7392;52.078;11.650;2022-12-20T01:18:51;14.13;;;11.20;;
14611;SDS011;7392;52.078;11.650;2022-12-20T01:21:20;16.70;;;11.40;;
14611;SDS011;7392;52.078;11.650;2022-12-20T01:23:49;14.70;;;10.83;;
14611;SDS011;7392;52.078;11.650;2022-12-20T01:26:20;13.77;;;10.73;;
14611;SDS011;7392;52.078;11.650;2022-12-20T01:28:51;14.93;;;10.43;;
14611;SDS011;7392;52.078;11.650;2022-12-20T01:31:20;14.20;;;11.10;;
14611;SDS011;7392;52.078;11.650;2022-12-20T01:33:50;14.93;;;11.17;;
14611;SDS011;7392;52.078;11.650;2022-12-20T01:36:19;16.93;;;11.43;;
14611;SDS011;7392;52.078;11.650;2022-12-20T01:38:54;14.17;;;10.80;;
14611;SDS011;7392;52.078;11.650;2022-12-20T01:41:24;15.70;;;11.33;;
14611;SDS011;7392;52.078;11.650;2022-12-20T01:43:53;14.20;;;10.03;;
14611;SDS011;7392;52.078;11.650;2022-12-20T01:46:24;15.10;;;10.37;;
14611;SDS011;7392;52.078;11.650;2022-12-20T01:48:54;13.43;;;10.37;;
14611;SDS011;7392;52.078;11.650;2022-12-20T01:51:26;14.20;;;11.07;;
14611;SDS011;7392;52.078;11.650;2022-12-20T01:53:57;13.47;;;10.80;;
14611;SDS011;7392;52.078;11.650;2022-12-20T01:56:32;15.90;;;11.77;;
14611;SDS011;7392;52.078;11.650;2022-12-20T01:59:00;16.50;;;11.80;;
14611;SDS011;7392;52.078;11.650;2022-12-20T02:01:28;16.30;;;11.43;;
14611;SDS011;7392;52.078;11.650;2022-12-20T02:03:57;13.87;;;10.57;;
14611;SDS011;7392;52.078;11.650;2022-12-20T02:06:25;14.93;;;10.87;;
14611;SDS011;7392;52.078;11.650;2022-12-20T02:08:54;15.10;;;10.93;;
14611;SDS011;7392;52.078;11.650;2022-12-20T02:11:43;12.67;;;10.40;;
14611;SDS011;7392;52.078;11.650;2022-12-20T02:14:21;12.50;;;10.33;;
14611;SDS011;7392;52.078;11.650;2022-12-20T02:17:00;11.70;;;9.57;;
14611;SDS011;7392;52.078;11.650;2022-12-20T02:22:36;18.10;;;11.70;;
14611;SDS011;7392;52.078;11.650;2022-12-20T02:25:27;14.33;;;11.20;;
14611;SDS011;7392;52.078;11.650;2022-12-20T02:28:12;18.60;;;13.17;;
14611;SDS011;7392;52.078;11.650;2022-12-20T02:30:59;16.57;;;11.90;;
14611;SDS011;7392;52.078;11.650;2022-12-20T02:33:31;15.93;;;11.23;;
14611;SDS011;7392;52.078;11.650;2022-12-20T02:35:59;15.90;;;11.57;;
14611;SDS011;7392;52.078;11.650;2022-12-20T02:38:29;16.80;;;11.90;;
14611;SDS011;7392;52.078;11.650;2022-12-20T02:41:00;17.90;;;12.60;;
14611;SDS011;7392;52.078;11.650;2022-12-20T02:43:32;16.43;;;12.23;;
14611;SDS011;7392;52.078;11.650;2022-12-20T02:46:22;18.80;;;13.17;;
14611;SDS011;7392;52.078;11.650;2022-12-20T02:48:53;18.77;;;13.13;;
14611;SDS011;7392;52.078;11.650;2022-12-20T02:51:25;17.53;;;12.77;;
14611;SDS011;7392;52.078;11.650;2022-12-20T02:53:54;16.30;;;12.17;;
14611;SDS011;7392;52.078;11.650;2022-12-20T02:56:27;17.60;;;12.53;;
14611;SDS011;7392;52.078;11.650;2022-12-20T02:59:00;14.83;;;11.47;;
14611;SDS011;7392;52.078;11.650;2022-12-20T03:01:35;15.37;;;12.27;;
14611;SDS011;7392;52.078;11.650;2022-12-20T03:04:05;19.23;;;13.03;;
14611;SDS011;7392;52.078;11.650;2022-12-20T03:06:38;18.33;;;12.63;;
14611;SDS011;7392;52.078;11.650;2022-12-20T03:09:06;18.93;;;13.30;;
14611;SDS011;7392;52.078;11.650;2022-12-20T03:11:35;17.93;;;12.93;;
14611;SDS011;7392;52.078;11.650;2022-12-20T03:14:03;18.90;;;13.00;;
14611;SDS011;7392;52.078;11.650;2022-12-20T03:16:31;17.13;;;12.20;;
14611;SDS011;7392;52.078;11.650;2022-12-20T03:19:00;15.83;;;11.70;;
14611;SDS011;7392;52.078;11.650;2022-12-20T03:21:28;21.60;;;13.43;;
14611;SDS011;7392;52.078;11.650;2022-12-20T03:23:56;18.03;;;12.77;;
14611;SDS011;7392;52.078;11.650;2022-12-20T03:26:24;16.27;;;12.20;;
14611;SDS011;7392;52.078;11.650;2022-12-20T03:28:56;17.67;;;12.80;;
14611;SDS011;7392;52.078;11.650;2022-12-20T03:31:26;15.87;;;11.87;;
14611;SDS011;7392;52.078;11.650;2022-12-20T03:33:54;16.77;;;12.27;;
14611;SDS011;7392;52.078;11.650;2022-12-20T03:36:24;16.10;;;12.47;;
14611;SDS011;7392;52.078;11.650;2022-12-20T03:38:56;15.53;;;11.13;;
14611;SDS011;7392;52.078;11.650;2022-12-20T03:41:26;14.53;;;11.07;;
14611;SDS011;7392;52.078;11.650;2022-12-20T03:43:54;16.03;;;11.60;;
14611;SDS011;7392;52.078;11.650;2022-12-20T03:46:23;14.67;;;11.70;;
14611;SDS011;7392;52.078;11.650;2022-12-20T03:48:52;15.93;;;12.17;;
14611;SDS011;7392;52.078;11.650;2022-12-20T03:51:20;14.23;;;10.27;;
14611;SDS011;7392;52.078;11.650;2022-12-20T03:53:49;13.97;;;10.87;;
14611;SDS011;7392;52.078;11.650;2022-12-20T03:56:19;14.17;;;10.10;;
14611;SDS011;7392;52.078;11.650;2022-12-20T03:58:47;14.67;;;9.93;;
14611;SDS011;7392;52.078;11.650;2022-12-20T04:01:16;12.63;;;9.60;;
14611;SDS011;7392;52.078;11.650;2022-12-20T04:03:46;12.47;;;10.10;;
14611;SDS011;7392;52.078;11.650;2022-12-20T04:06:14;14.03;;;10.37;;
14611;SDS011;7392;52.078;11.650;2022-12-20T04:08:43;13.70;;;10.00;;
14611;SDS011;7392;52.078;11.650;2022-12-20T04:11:18;12.80;;;9.73;;
14611;SDS011;7392;52.078;11.650;2022-12-20T04:13:51;9.90;;;8.23;;
14611;SDS011;7392;52.078;11.650;2022-12-20T04:16:21;9.83;;;7.57;;
14611;SDS011;7392;52.078;11.650;2022-12-20T04:18:52;9.27;;;7.97;;
14611;SDS011;7392;52.078;11.650;2022-12-20T04:21:21;11.30;;;8.87;;
14611;SDS011;7392;52.078;11.650;2022-12-20T04:23:52;13.33;;;10.50;;
14611;SDS011;7392;52.078;11.650;2022-12-20T04:26:23;13.67;;;10.27;;
14611;SDS011;7392;52.078;11.650;2022-12-20T04:28:51;13.50;;;10.30;;
14611;SDS011;7392;52.078;11.650;2022-12-20T04:31:19;13.77;;;10.40;;
14611;SDS011;7392;52.078;11.650;2022-12-20T04:33:51;12.23;;;9.83;;
14611;SDS011;7392;52.078;11.650;2022-12-20T04:36:19;14.03;;;9.53;;
14611;SDS011;7392;52.078;11.650;2022-12-20T04:38:50;12.70;;;9.93;;
14611;SDS011;7392;52.078;11.650;2022-12-20T04:41:18;12.23;;;9.47;;
14611;SDS011;7392;52.078;11.650;2022-12-20T04:43:56;14.70;;;10.57;;
14611;SDS011;7392;52.078;11.650;2022-12-20T04:46:32;14.77;;;10.97;;
14611;SDS011;7392;52.078;11.650;2022-12-20T04:49:01;15.53;;;11.77;;
14611;SDS011;7392;52.078;11.650;2022-12-20T04:51:32;15.20;;;11.33;;
14611;SDS011;7392;52.078;11.650;2022-12-20T04:54:00;16.57;;;11.73;;
14611;SDS011;7392;52.078;11.650;2022-12-20T04:56:39;17.37;;;11.93;;
14611;SDS011;7392;52.078;11.650;2022-12-20T04:59:10;15.07;;;11.30;;
14611;SDS011;7392;52.078;11.650;2022-12-20T05:01:41;14.50;;;11.80;;
14611;SDS011;7392;52.078;11.650;2022-12-20T05:04:13;15.67;;;10.57;;
14611;SDS011;7392;52.078;11.650;2022-12-20T05:06:41;15.87;;;11.60;;
14611;SDS011;7392;52.078;11.650;2022-12-20T05:09:09;15.50;;;11.40;;
14611;SDS011;7392;52.078;11.650;2022-12-20T05:11:38;14.80;;;11.80;;
14611;SDS011;7392;52.078;11.650;2022-12-20T05:14:07;14.57;;;11.47;;
14611;SDS011;7392;52.078;11.650;2022-12-20T05:16:36;16.73;;;12.30;;
14611;SDS011;7392;52.078;11.650;2022-12-20T05:19:05;16.17;;;11.83;;
14611;SDS011;7392;52.078;11.650;2022-12-20T05:21:37;16.77;;;11.57;;
14611;SDS011;7392;52.078;11.650;2022-12-20T05:24:25;15.40;;;11.80;;
14611;SDS011;7392;52.078;11.650;2022-12-20T05:27:22;16.10;;;11.83;;
14611;SDS011;7392;52.078;11.650;2022-12-20T05:29:50;13.73;;;10.37;;
14611;SDS011;7392;52.078;11.650;2022-12-20T05:32:20;14.57;;;11.30;;
14611;SDS011;7392;52.078;11.650;2022-12-20T05:34:49;15.67;;;11.13;;
14611;SDS011;7392;52.078;11.650;2022-12-20T05:37:18;14.23;;;10.90;;
14611;SDS011;7392;52.078;11.650;2022-12-20T05:39:47;15.03;;;11.53;;
14611;SDS011;7392;52.078;11.650;2022-12-20T05:42:19;14.47;;;10.27;;
14611;SDS011;7392;52.078;11.650;2022-12-20T05:44:50;16.03;;;11.10;;
14611;SDS011;7392;52.078;11.650;2022-12-20T05:47:21;14.23;;;10.67;;
14611;SDS011;7392;52.078;11.650;2022-12-20T05:49:57;15.03;;;10.27;;
14611;SDS011;7392;52.078;11.650;2022-12-20T05:52:29;14.83;;;10.77;;
14611;SDS011;7392;52.078;11.650;2022-12-20T05:54:57;15.33;;;10.77;;
14611;SDS011;7392;52.078;11.650;2022-12-20T05:57:26;13.83;;;10.47;;
14611;SDS011;7392;52.078;11.650;2022-12-20T05:59:54;12.53;;;10.47;;
14611;SDS011;7392;52.078;11.650;2022-12-20T06:02:25;17.83;;;11.33;;
14611;SDS011;7392;52.078;11.650;2022-12-20T06:04:59;16.40;;;10.80;;
14611;SDS011;7392;52.078;11.650;2022-12-20T06:07:28;15.03;;;10.57;;
14611;SDS011;7392;52.078;11.650;2022-12-20T06:09:58;13.43;;;10.40;;
14611;SDS011;7392;52.078;11.650;2022-12-20T06:12:51;17.23;;;10.20;;
14611;SDS011;7392;52.078;11.650;2022-12-20T06:15:19;14.57;;;10.27;;
14611;SDS011;7392;52.078;11.650;2022-12-20T06:17:49;15.57;;;10.33;;
14611;SDS011;7392;52.078;11.650;2022-12-20T06:20:17;12.23;;;9.50;;
14611;SDS011;7392;52.078;11.650;2022-12-20T06:22:47;13.73;;;9.43;;
14611;SDS011;7392;52.078;11.650;2022-12-20T06:25:14;11.50;;;8.80;;
14611;SDS011;7392;52.078;11.650;2022-12-20T06:27:43;12.97;;;9.47;;
14611;SDS011;7392;52.078;11.650;2022-12-20T06:30:13;12.17;;;9.37;;
14611;SDS011;7392;52.078;11.650;2022-12-20T06:32:56;12.17;;;10.03;;
14611;SDS011;7392;52.078;11.650;2022-12-20T06:35:24;13.63;;;9.80;;
14611;SDS011;7392;52.078;11.650;2022-12-20T06:37:54;13.13;;;9.80;;
14611;SDS011;7392;52.078;11.650;2022-12-20T06:40:22;12.50;;;10.33;;
14611;SDS011;7392;52.078;11.650;2022-12-20T06:42:50;12.40;;;9.57;;
14611;SDS011;7392;52.078;11.650;2022-12-20T06:45:21;13.40;;;9.17;;
14611;SDS011;7392;52.078;11.650;2022-12-20T06:47:50;11.10;;;8.77;;
14611;SDS011;7392;52.078;11.650;2022-12-20T06:50:20;10.07;;;7.87;;
14611;SDS011;7392;52.078;11.650;2022-12-20T06:52:48;8.77;;;7.87;;
14611;SDS011;7392;52.078;11.650;2022-12-20T06:55:16;11.10;;;8.60;;
14611;SDS011;7392;52.078;11.650;2022-12-20T06:57:44;13.53;;;8.97;;
14611;SDS011;7392;52.078;11.650;2022-12-20T07:00:21;12.43;;;9.70;;
14611;SDS011;7392;52.078;11.650;2022-12-20T07:02:49;12.03;;;8.87;;
14611;SDS011;7392;52.078;11.650;2022-12-20T07:05:18;11.07;;;8.57;;
14611;SDS011;7392;52.078;11.650;2022-12-20T07:07:47;10.00;;;8.13;;
14611;SDS011;7392;52.078;11.650;2022-12-20T07:10:14;10.70;;;8.53;;
14611;SDS011;7392;52.078;11.650;2022-12-20T07:12:42;11.20;;;8.40;;
14611;SDS011;7392;52.078;11.650;2022-12-20T07:15:14;15.43;;;10.50;;
14611;SDS011;7392;52.078;11.650;2022-12-20T07:17:42;13.87;;;11.00;;
14611;SDS011;7392;52.078;11.650;2022-12-20T07:20:10;14.30;;;10.70;;
14611;SDS011;7392;52.078;11.650;2022-12-20T07:22:40;12.73;;;10.23;;
14611;SDS011;7392;52.078;11.650;2022-12-20T07:25:10;15.20;;;11.13;;
14611;SDS011;7392;52.078;11.650;2022-12-20T07:27:38;15.67;;;12.30;;
14611;SDS011;7392;52.078;11.650;2022-12-20T07:30:06;14.83;;;10.90;;
14611;SDS011;7392;52.078;11.650;2022-12-20T07:32:34;16.87;;;12.23;;
14611;SDS011;7392;52.078;11.650;2022-12-20T07:35:02;13.27;;;10.93;;
14611;SDS011;7392;52.078;11.650;2022-12-20T07:37:30;14.90;;;11.27;;
14611;SDS011;7392;52.078;11.650;2022-12-20T07:39:58;14.50;;;11.50;;
14611;SDS011;7392;52.078;11.650;2022-12-20T07:42:27;15.67;;;10.57;;
14611;SDS011;7392;52.078;11.650;2022-12-20T07:45:04;15.70;;;10.40;;
14611;SDS011;7392;52.078;11.650;2022-12-20T07:47:32;13.87;;;10.87;;
14611;SDS011;7392;52.078;11.650;2022-12-20T07:50:01;15.77;;;11.10;;
14611;SDS011;7392;52.078;11.650;2022-12-20T07:52:29;13.90;;;10.70;;
14611;SDS011;7392;52.078;11.650;2022-12-20T07:55:01;13.37;;;10.23;;
14611;SDS011;7392;52.078;11.650;2022-12-20T07:57:33;14.23;;;10.70;;
14611;SDS011;7392;52.078;11.650;2022-12-20T08:00:07;15.23;;;10.50;;
14611;SDS011;7392;52.078;11.650;2022-12-20T08:02:39;13.70;;;10.80;;
14611;SDS011;7392;52.078;11.650;2022-12-20T08:05:11;15.07;;;10.57;;
14611;SDS011;7392;52.078;11.650;2022-12-20T08:07:39;14.90;;;11.23;;
14611;SDS011;7392;52.078;11.650;2022-12-20T08:10:09;12.73;;;9.67;;
14611;SDS011;7392;52.078;11.650;2022-12-20T08:12:41;11.33;;;9.50;;
14611;SDS011;7392;52.078;11.650;2022-12-20T08:15:11;13.47;;;10.03;;
14611;SDS011;7392;52.078;11.650;2022-12-20T08:17:39;12.07;;;9.33;;
14611;SDS011;7392;52.078;11.650;2022-12-20T08:20:07;12.80;;;9.70;;
14611;SDS011;7392;52.078;11.650;2022-12-20T08:22:35;12.50;;;9.20;;
14611;SDS011;7392;52.078;11.650;2022-12-20T08:25:03;11.37;;;9.10;;
14611;SDS011;7392;52.078;11.650;2022-12-20T08:27:32;10.57;;;8.90;;
14611;SDS011;7392;52.078;11.650;2022-12-20T08:30:01;10.93;;;8.33;;
14611;SDS011;7392;52.078;11.650;2022-12-20T08:32:29;11.70;;;8.90;;
14611;SDS011;7392;52.078;11.650;2022-12-20T08:34:57;11.67;;;9.30;;
14611;SDS011;7392;52.078;11.650;2022-12-20T08:37:25;9.73;;;8.37;;
14611;SDS011;7392;52.078;11.650;2022-12-20T08:39:53;11.60;;;8.93;;
14611;SDS011;7392;52.078;11.650;2022-12-20T08:42:21;11.03;;;9.17;;
14611;SDS011;7392;52.078;11.650;2022-12-20T08:44:50;10.87;;;8.97;;
14611;SDS011;7392;52.078;11.650;2022-12-20T08:47:19;9.70;;;7.97;;
14611;SDS011;7392;52.078;11.650;2022-12-20T08:49:47;11.20;;;9.13;;
14611;SDS011;7392;52.078;11.650;2022-12-20T08:52:15;12.90;;;9.43;;
14611;SDS011;7392;52.078;11.650;2022-12-20T08:54:42;11.07;;;9.83;;
14611;SDS011;7392;52.078;11.650;2022-12-20T08:57:10;12.67;;;10.10;;
14611;SDS011;7392;52.078;11.650;2022-12-20T08:59:38;13.43;;;10.17;;
14611;SDS011;7392;52.078;11.650;2022-12-20T09:02:06;13.10;;;9.10;;
14611;SDS011;7392;52.078;11.650;2022-12-20T09:04:36;14.20;;;10.63;;
14611;SDS011;7392;52.078;11.650;2022-12-20T09:07:04;14.33;;;10.70;;
14611;SDS011;7392;52.078;11.650;2022-12-20T09:09:31;15.53;;;10.43;;
14611;SDS011;7392;52.078;11.650;2022-12-20T09:11:59;14.73;;;11.50;;
14611;SDS011;7392;52.078;11.650;2022-12-20T09:14:27;13.30;;;11.17;;
14611;SDS011;7392;52.078;11.650;2022-12-20T09:16:55;15.30;;;11.63;;
14611;SDS011;7392;52.078;11.650;2022-12-20T09:19:23;14.33;;;11.27;;
14611;SDS011;7392;52.078;11.650;2022-12-20T09:21:52;13.10;;;11.10;;
14611;SDS011;7392;52.078;11.650;2022-12-20T09:24:20;14.43;;;11.50;;
14611;SDS011;7392;52.078;11.650;2022-12-20T09:26:48;15.30;;;11.33;;
14611;SDS011;7392;52.078;11.650;2022-12-20T09:29:17;14.23;;;11.10;;
14611;SDS011;7392;52.078;11.650;2022-12-20T09:31:54;15.73;;;10.90;;
14611;SDS011;7392;52.078;11.650;2022-12-20T09:34:22;11.57;;;9.70;;
14611;SDS011;7392;52.078;11.650;2022-12-20T09:36:52;14.43;;;10.20;;
14611;SDS011;7392;52.078;11.650;2022-12-20T09:39:20;10.77;;;8.97;;
14611;SDS011;7392;52.078;11.650;2022-12-20T09:41:48;11.63;;;9.43;;
14611;SDS011;7392;52.078;11.650;2022-12-20T09:44:17;13.90;;;11.10;;
14611;SDS011;7392;52.078;11.650;2022-12-20T09:46:48;15.80;;;10.70;;
14611;SDS011;7392;52.078;11.650;2022-12-20T09:49:22;17.17;;;11.67;;
14611;SDS011;7392;52.078;11.650;2022-12-20T09:52:06;16.87;;;10.70;;
14611;SDS011;7392;52.078;11.650;2022-12-20T09:54:48;14.23;;;11.33;;
14611;SDS011;7392;52.078;11.650;2022-12-20T09:57:24;15.27;;;10.23;;
14611;SDS011;7392;52.078;11.650;2022-12-20T09:59:57;16.93;;;11.97;;
14611;SDS011;7392;52.078;11.650;2022-12-20T10:02:25;14.90;;;11.67;;
14611;SDS011;7392;52.078;11.650;2022-12-20T10:05:16;16.50;;;12.03;;
14611;SDS011;7392;52.078;11.650;2022-12-20T10:07:52;14.50;;;11.23;;
14611;SDS011;7392;52.078;11.650;2022-12-20T10:13:22;16.27;;;11.30;;
14611;SDS011;7392;52.078;11.650;2022-12-20T10:16:04;17.80;;;12.00;;
14611;SDS011;7392;52.078;11.650;2022-12-20T10:18:45;17.27;;;11.97;;
14611;SDS011;7392;52.078;11.650;2022-12-20T10:21:25;15.23;;;11.37;;
14611;SDS011;7392;52.078;11.650;2022-12-20T10:24:03;16.73;;;10.73;;
14611;SDS011;7392;52.078;11.650;2022-12-20T10:26:36;18.20;;;11.57;;
14611;SDS011;7392;52.078;11.650;2022-12-20T10:29:04;12.97;;;10.40;;
14611;SDS011;7392;52.078;11.650;2022-12-20T10:31:33;15.30;;;11.47;;
14611;SDS011;7392;52.078;11.650;2022-12-20T10:34:01;14.90;;;11.10;;
14611;SDS011;7392;52.078;11.650;2022-12-20T10:36:29;13.60;;;10.73;;
14611;SDS011;7392;52.078;11.650;2022-12-20T10:38:59;14.63;;;11.63;;
14611;SDS011;7392;52.078;11.650;2022-12-20T10:41:30;14.67;;;11.47;;
14611;SDS011;7392;52.078;11.650;2022-12-20T10:44:01;16.80;;;11.27;;
14611;SDS011;7392;52.078;11.650;2022-12-20T10:46:34;14.30;;;12.03;;
14611;SDS011;7392;52.078;11.650;2022-12-20T10:49:20;16.93;;;11.20;;
14611;SDS011;7392;52.078;11.650;2022-12-20T10:51:53;13.40;;;10.80;;
14611;SDS011;7392;52.078;11.650;2022-12-20T10:54:24;14.37;;;10.83;;
14611;SDS011;7392;52.078;11.650;2022-12-20T10:56:59;13.07;;;10.90;;
14611;SDS011;7392;52.078;11.650;2022-12-20T10:59:30;14.43;;;11.00;;
14611;SDS011;7392;52.078;11.650;2022-12-20T11:02:01;14.33;;;10.30;;
14611;SDS011;7392;52.078;11.650;2022-12-20T11:04:31;13.07;;;11.10;;
14611;SDS011;7392;52.078;11.650;2022-12-20T11:07:02;14.83;;;11.07;;
14611;SDS011;7392;52.078;11.650;2022-12-20T11:09:51;13.97;;;10.90;;
14611;SDS011;7392;52.078;11.650;2022-12-20T11:12:23;16.80;;;10.97;;
14611;SDS011;7392;52.078;11.650;2022-12-20T11:14:51;15.33;;;11.00;;
14611;SDS011;7392;52.078;11.650;2022-12-20T11:17:36;15.93;;;10.60;;
14611;SDS011;7392;52.078;11.650;2022-12-20T11:20:10;13.43;;;10.50;;
14611;SDS011;7392;52.078;11.650;2022-12-20T11:22:50;13.53;;;10.33;;
14611;SDS011;7392;52.078;11.650;2022-12-20T11:25:33;11.90;;;10.20;;
14611;SDS011;7392;52.078;11.650;2022-12-20T11:28:19;15.13;;;10.23;;
14611;SDS011;7392;52.078;11.650;2022-12-20T11:31:00;14.37;;;10.47;;
14611;SDS011;7392;52.078;11.650;2022-12-20T11:33:44;15.93;;;11.57;;
14611;SDS011;7392;52.078;11.650;2022-12-20T11:36:24;15.63;;;11.90;;
14611;SDS011;7392;52.078;11.650;2022-12-20T11:39:03;15.33;;;11.90;;
14611;SDS011;7392;52.078;11.650;2022-12-20T11:41:43;17.57;;;11.20;;
14611;SDS011;7392;52.078;11.650;2022-12-20T11:44:20;14.60;;;10.53;;
14611;SDS011;7392;52.078;11.650;2022-12-20T11:47:00;16.63;;;11.53;;
14611;SDS011;7392;52.078;11.650;2022-12-20T11:50:02;13.47;;;11.10;;
14611;SDS011;7392;52.078;11.650;2022-12-20T11:52:40;14.90;;;11.50;;
14611;SDS011;7392;52.078;11.650;2022-12-20T11:55:14;13.43;;;11.00;;
14611;SDS011;7392;52.078;11.650;2022-12-20T11:57:48;16.13;;;12.20;;
14611;SDS011;7392;52.078;11.650;2022-12-20T12:00:45;15.80;;;11.57;;
14611;SDS011;7392;52.078;11.650;2022-12-20T12:03:18;15.17;;;11.57;;
14611;SDS011;7392;52.078;11.650;2022-12-20T12:05:53;18.37;;;12.60;;
14611;SDS011;7392;52.078;11.650;2022-12-20T12:08:28;20.93;;;12.20;;
14611;SDS011;7392;52.078;11.650;2022-12-20T12:11:01;14.87;;;12.33;;
14611;SDS011;7392;52.078;11.650;2022-12-20T12:13:55;17.07;;;12.63;;
14611;SDS011;7392;52.078;11.650;2022-12-20T12:16:26;15.60;;;12.43;;
14611;SDS011;7392;52.078;11.650;2022-12-20T12:18:58;15.30;;;12.33;;
14611;SDS011;7392;52.078;11.650;2022-12-20T12:21:27;15.27;;;11.70;;
14611;SDS011;7392;52.078;11.650;2022-12-20T12:24:02;14.27;;;11.27;;
14611;SDS011;7392;52.078;11.650;2022-12-20T12:26:36;18.40;;;11.77;;
14611;SDS011;7392;52.078;11.650;2022-12-20T12:29:09;17.37;;;12.47;;
14611;SDS011;7392;52.078;11.650;2022-12-20T12:31:41;15.90;;;12.47;;
14611;SDS011;7392;52.078;11.650;2022-12-20T12:34:17;14.53;;;11.60;;
14611;SDS011;7392;52.078;11.650;2022-12-20T12:37:04;13.83;;;11.63;;
14611;SDS011;7392;52.078;11.650;2022-12-20T12:40:01;14.70;;;11.67;;
14611;SDS011;7392;52.078;11.650;2022-12-20T12:45:35;14.07;;;11.27;;
14611;SDS011;7392;52.078;11.650;2022-12-20T12:48:12;14.27;;;11.17;;
14611;SDS011;7392;52.078;11.650;2022-12-20T12:50:46;11.90;;;10.27;;
14611;SDS011;7392;52.078;11.650;2022-12-20T12:53:17;13.80;;;10.93;;
14611;SDS011;7392;52.078;11.650;2022-12-20T12:55:48;16.63;;;11.40;;
14611;SDS011;7392;52.078;11.650;2022-12-20T12:58:37;14.23;;;11.90;;
14611;SDS011;7392;52.078;11.650;2022-12-20T13:01:25;15.90;;;12.53;;
14611;SDS011;7392;52.078;11.650;2022-12-20T13:04:22;18.03;;;12.27;;
14611;SDS011;7392;52.078;11.650;2022-12-20T13:06:56;16.93;;;12.43;;
14611;SDS011;7392;52.078;11.650;2022-12-20T13:09:39;14.10;;;10.97;;
14611;SDS011;7392;52.078;11.650;2022-12-20T13:18:20;12.27;;;10.43;;
14611;SDS011;7392;52.078;11.650;2022-12-20T13:27:14;13.10;;;10.83;;
14611;SDS011;7392;52.078;11.650;2022-12-20T13:35:53;12.03;;;9.77;;
14611;SDS011;7392;52.078;11.650;2022-12-20T13:41:20;13.60;;;10.80;;
14611;SDS011;7392;52.078;11.650;2022-12-20T13:44:16;13.87;;;11.03;;
14611;SDS011;7392;52.078;11.650;2022-12-20T13:46:57;13.73;;;10.57;;
14611;SDS011;7392;52.078;11.650;2022-12-20T13:49:31;13.63;;;10.10;;
14611;SDS011;7392;52.078;11.650;2022-12-20T13:52:16;14.27;;;11.40;;
14611;SDS011;7392;52.078;11.650;2022-12-20T13:54:49;16.93;;;12.00;;
14611;SDS011;7392;52.078;11.650;2022-12-20T13:57:21;14.57;;;11.70;;
14611;SDS011;7392;52.078;11.650;2022-12-20T13:59:59;13.23;;;10.27;;
14611;SDS011;7392;52.078;11.650;2022-12-20T14:02:33;15.50;;;11.70;;
14611;SDS011;7392;52.078;11.650;2022-12-20T14:05:12;14.00;;;11.57;;
14611;SDS011;7392;52.078;11.650;2022-12-20T14:07:44;13.40;;;11.23;;
14611;SDS011;7392;52.078;11.650;2022-12-20T14:10:17;16.93;;;11.83;;
14611;SDS011;7392;52.078;11.650;2022-12-20T14:12:48;16.80;;;12.17;;
14611;SDS011;7392;52.078;11.650;2022-12-20T14:15:26;13.57;;;11.27;;
14611;SDS011;7392;52.078;11.650;2022-12-20T14:17:56;12.73;;;10.60;;
14611;SDS011;7392;52.078;11.650;2022-12-20T14:20:30;13.43;;;10.87;;
14611;SDS011;7392;52.078;11.650;2022-12-20T14:23:01;13.87;;;10.63;;
14611;SDS011;7392;52.078;11.650;2022-12-20T14:25:33;13.23;;;11.00;;
14611;SDS011;7392;52.078;11.650;2022-12-20T14:28:10;12.97;;;10.67;;
14611;SDS011;7392;52.078;11.650;2022-12-20T14:30:53;14.73;;;10.83;;
14611;SDS011;7392;52.078;11.650;2022-12-20T14:33:27;13.83;;;11.90;;
14611;SDS011;7392;52.078;11.650;2022-12-20T14:36:01;15.37;;;11.87;;
14611;SDS011;7392;52.078;11.650;2022-12-20T14:38:34;14.03;;;10.67;;
14611;SDS011;7392;52.078;11.650;2022-12-20T14:41:02;15.07;;;11.80;;
14611;SDS011;7392;52.078;11.650;2022-12-20T14:43:31;15.30;;;10.87;;
14611;SDS011;7392;52.078;11.650;2022-12-20T14:46:16;13.03;;;10.63;;
14611;SDS011;7392;52.078;11.650;2022-12-20T14:48:47;13.17;;;10.63;;
14611;SDS011;7392;52.078;11.650;2022-12-20T14:51:31;14.47;;;11.33;;
14611;SDS011;7392;52.078;11.650;2022-12-20T14:53:59;16.63;;;12.37;;
14611;SDS011;7392;52.078;11.650;2022-12-20T14:56:26;14.90;;;11.83;;
14611;SDS011;7392;52.078;11.650;2022-12-20T14:59:01;18.23;;;12.67;;
14611;SDS011;7392;52.078;11.650;2022-12-20T15:01:34;15.87;;;12.33;;
14611;SDS011;7392;52.078;11.650;2022-12-20T15:04:19;14.17;;;11.53;;
14611;SDS011;7392;52.078;11.650;2022-12-20T15:06:49;15.67;;;11.53;;
14611;SDS011;7392;52.078;11.650;2022-12-20T15:09:18;16.23;;;11.73;;
14611;SDS011;7392;52.078;11.650;2022-12-20T15:11:46;16.53;;;12.47;;
14611;SDS011;7392;52.078;11.650;2022-12-20T15:14:22;14.67;;;11.70;;
14611;SDS011;7392;52.078;11.650;2022-12-20T15:17:00;14.53;;;11.17;;
14611;SDS011;7392;52.078;11.650;2022-12-20T15:19:29;14.83;;;11.07;;
14611;SDS011;7392;52.078;11.650;2022-12-20T15:22:04;12.53;;;10.70;;
14611;SDS011;7392;52.078;11.650;2022-12-20T15:24:32;15.70;;;11.50;;
14611;SDS011;7392;52.078;11.650;2022-12-20T15:26:59;16.57;;;11.97;;